sensor_id;sensor_type;location;lat;lon;timestamp;temperature;humidity
76838;DHT22;65797;47.352;8.164;2024-01-30T00:02:11;0.50;1.00
76838;DHT22;65797;47.352;8.164;2024-01-30T00:04:37;0.50;1.00
76838;DHT22;65797;47.352;8.164;2024-01-30T00:07:02;0.50;1.00
76838;DHT22;65797;47.352;8.164;2024-01-30T00:09:28;0.50;1.00
76838;DHT22;65797;47.352;8.164;2024-01-30T00:11:54;0.40;1.00
76838;DHT22;65797;47.352;8.164;2024-01-30T00:14:20;0.40;1.00
76838;DHT22;65797;47.352;8.164;2024-01-30T00:16:45;0.40;1.00
76838;DHT22;65797;47.352;8.164;2024-01-30T00:19:11;0.40;1.00
76838;DHT22;65797;47.352;8.164;2024-01-30T00:21:37;0.40;1.00
76838;DHT22;65797;47.352;8.164;2024-01-30T00:24:04;0.40;1.00
76838;DHT22;65797;47.352;8.164;2024-01-30T00:26:34;0.40;1.00
76838;DHT22;65797;47.352;8.164;2024-01-30T00:29:00;0.30;1.00
76838;DHT22;65797;47.352;8.164;2024-01-30T00:31:25;0.30;1.00
76838;DHT22;65797;47.352;8.164;2024-01-30T00:33:51;0.30;1.00
76838;DHT22;65797;47.352;8.164;2024-01-30T00:36:17;0.30;1.00
76838;DHT22;65797;47.352;8.164;2024-01-30T00:38:42;0.30;1.00
76838;DHT22;65797;47.352;8.164;2024-01-30T00:41:08;0.30;1.00
76838;DHT22;65797;47.352;8.164;2024-01-30T00:43:35;0.30;1.00
76838;DHT22;65797;47.352;8.164;2024-01-30T00:46:01;0.20;1.00
76838;DHT22;65797;47.352;8.164;2024-01-30T00:48:26;0.20;99.90
76838;DHT22;65797;47.352;8.164;2024-01-30T00:50:52;0.20;1.00
76838;DHT22;65797;47.352;8.164;2024-01-30T00:53:17;0.20;1.00
76838;DHT22;65797;47.352;8.164;2024-01-30T00:55:43;0.20;1.00
76838;DHT22;65797;47.352;8.164;2024-01-30T00:58:09;0.20;1.00
76838;DHT22;65797;47.352;8.164;2024-01-30T01:00:35;0.20;1.00
76838;DHT22;65797;47.352;8.164;2024-01-30T01:03:00;0.10;1.00
76838;DHT22;65797;47.352;8.164;2024-01-30T01:05:26;0.10;1.00
76838;DHT22;65797;47.352;8.164;2024-01-30T01:07:52;0.10;1.00
76838;DHT22;65797;47.352;8.164;2024-01-30T01:10:18;0.10;1.00
76838;DHT22;65797;47.352;8.164;2024-01-30T01:12:44;0.10;1.00
76838;DHT22;65797;47.352;8.164;2024-01-30T01:15:10;0.10;1.00
76838;DHT22;65797;47.352;8.164;2024-01-30T01:17:37;0.10;1.00
76838;DHT22;65797;47.352;8.164;2024-01-30T01:20:04;0.00;1.00
76838;DHT22;65797;47.352;8.164;2024-01-30T01:22:33;0.00;1.00
76838;DHT22;65797;47.352;8.164;2024-01-30T01:24:59;0.00;1.00
76838;DHT22;65797;47.352;8.164;2024-01-30T01:27:25;0.00;1.00
76838;DHT22;65797;47.352;8.164;2024-01-30T01:29:51;0.00;1.00
76838;DHT22;65797;47.352;8.164;2024-01-30T01:32:17;0.00;1.00
76838;DHT22;65797;47.352;8.164;2024-01-30T01:34:43;0.00;1.00
76838;DHT22;65797;47.352;8.164;2024-01-30T01:37:08;0.00;1.00
76838;DHT22;65797;47.352;8.164;2024-01-30T01:39:34;0.00;1.00
76838;DHT22;65797;47.352;8.164;2024-01-30T01:42:00;-0.10;1.00
76838;DHT22;65797;47.352;8.164;2024-01-30T01:44:26;0.00;99.90
76838;DHT22;65797;47.352;8.164;2024-01-30T01:47:15;-0.10;99.90
76838;DHT22;65797;47.352;8.164;2024-01-30T01:49:42;-0.10;99.90
76838;DHT22;65797;47.352;8.164;2024-01-30T01:52:08;-0.10;21.00
76838;DHT22;65797;47.352;8.164;2024-01-30T01:54:34;-0.10;64.90
76838;DHT22;65797;47.352;8.164;2024-01-30T01:57:01;-0.10;99.90
76838;DHT22;65797;47.352;8.164;2024-01-30T01:59:26;-0.10;99.90
76838;DHT22;65797;47.352;8.164;2024-01-30T02:01:54;-0.10;99.90
76838;DHT22;65797;47.352;8.164;2024-01-30T02:04:21;-0.10;90.70
76838;DHT22;65797;47.352;8.164;2024-01-30T02:06:46;-0.10;99.90
76838;DHT22;65797;47.352;8.164;2024-01-30T02:09:12;-0.20;27.40
76838;DHT22;65797;47.352;8.164;2024-01-30T02:14:11;-0.30;1.00
76838;DHT22;65797;47.352;8.164;2024-01-30T02:16:37;-0.30;85.30
76838;DHT22;65797;47.352;8.164;2024-01-30T02:19:02;-0.20;99.90
76838;DHT22;65797;47.352;8.164;2024-01-30T02:21:28;-0.20;99.90
76838;DHT22;65797;47.352;8.164;2024-01-30T02:23:54;-0.30;99.90
76838;DHT22;65797;47.352;8.164;2024-01-30T02:26:21;-0.30;99.90
76838;DHT22;65797;47.352;8.164;2024-01-30T02:28:47;-0.20;99.90
76838;DHT22;65797;47.352;8.164;2024-01-30T02:31:25;-0.20;1.00
76838;DHT22;65797;47.352;8.164;2024-01-30T02:34:15;-0.30;1.00
76838;DHT22;65797;47.352;8.164;2024-01-30T02:36:45;-0.20;1.00
76838;DHT22;65797;47.352;8.164;2024-01-30T02:39:11;-0.30;1.00
76838;DHT22;65797;47.352;8.164;2024-01-30T02:41:37;-0.30;1.00
76838;DHT22;65797;47.352;8.164;2024-01-30T02:44:03;-0.30;1.00
76838;DHT22;65797;47.352;8.164;2024-01-30T02:46:29;-0.30;1.00
76838;DHT22;65797;47.352;8.164;2024-01-30T02:48:55;-0.40;1.00
76838;DHT22;65797;47.352;8.164;2024-01-30T02:51:21;-0.30;1.00
76838;DHT22;65797;47.352;8.164;2024-01-30T02:53:47;-0.30;1.00
76838;DHT22;65797;47.352;8.164;2024-01-30T02:56:13;-0.40;1.00
76838;DHT22;65797;47.352;8.164;2024-01-30T02:58:42;-0.40;99.90
76838;DHT22;65797;47.352;8.164;2024-01-30T03:01:07;-0.40;99.90
76838;DHT22;65797;47.352;8.164;2024-01-30T03:03:33;-0.40;99.90
76838;DHT22;65797;47.352;8.164;2024-01-30T03:06:02;-0.40;99.90
76838;DHT22;65797;47.352;8.164;2024-01-30T03:08:28;-0.40;99.90
76838;DHT22;65797;47.352;8.164;2024-01-30T03:10:54;-0.40;99.90
76838;DHT22;65797;47.352;8.164;2024-01-30T03:13:19;-0.50;99.90
76838;DHT22;65797;47.352;8.164;2024-01-30T03:15:45;-0.50;99.90
76838;DHT22;65797;47.352;8.164;2024-01-30T03:18:11;-0.50;99.90
76838;DHT22;65797;47.352;8.164;2024-01-30T03:20:36;-0.50;99.90
76838;DHT22;65797;47.352;8.164;2024-01-30T03:23:02;-0.60;1.00
76838;DHT22;65797;47.352;8.164;2024-01-30T03:25:28;-0.50;32.20
76838;DHT22;65797;47.352;8.164;2024-01-30T03:27:54;-0.60;50.60
76838;DHT22;65797;47.352;8.164;2024-01-30T03:30:19;-0.60;99.90
76838;DHT22;65797;47.352;8.164;2024-01-30T03:32:45;-0.60;21.70
76838;DHT22;65797;47.352;8.164;2024-01-30T03:35:11;-0.60;1.00
76838;DHT22;65797;47.352;8.164;2024-01-30T03:37:36;-0.60;1.00
76838;DHT22;65797;47.352;8.164;2024-01-30T03:40:03;-0.60;1.00
76838;DHT22;65797;47.352;8.164;2024-01-30T03:42:29;-0.60;1.00
76838;DHT22;65797;47.352;8.164;2024-01-30T03:44:54;-0.60;1.00
76838;DHT22;65797;47.352;8.164;2024-01-30T03:47:20;-0.60;1.00
76838;DHT22;65797;47.352;8.164;2024-01-30T03:49:46;-0.60;1.00
76838;DHT22;65797;47.352;8.164;2024-01-30T03:52:12;-0.70;1.00
76838;DHT22;65797;47.352;8.164;2024-01-30T03:54:37;-0.70;1.00
76838;DHT22;65797;47.352;8.164;2024-01-30T03:57:03;-0.70;1.00
76838;DHT22;65797;47.352;8.164;2024-01-30T03:59:29;-0.60;18.30
76838;DHT22;65797;47.352;8.164;2024-01-30T04:01:55;-0.60;77.30
76838;DHT22;65797;47.352;8.164;2024-01-30T04:04:20;-0.70;99.90
76838;DHT22;65797;47.352;8.164;2024-01-30T04:06:46;-0.70;99.90
76838;DHT22;65797;47.352;8.164;2024-01-30T04:09:12;-0.70;99.90
76838;DHT22;65797;47.352;8.164;2024-01-30T04:11:39;-0.70;99.90
76838;DHT22;65797;47.352;8.164;2024-01-30T04:14:05;-0.70;99.90
76838;DHT22;65797;47.352;8.164;2024-01-30T04:16:31;-0.70;99.90
76838;DHT22;65797;47.352;8.164;2024-01-30T04:18:57;-0.70;99.90
76838;DHT22;65797;47.352;8.164;2024-01-30T04:21:23;-0.70;99.90
76838;DHT22;65797;47.352;8.164;2024-01-30T04:23:51;-0.70;99.90
76838;DHT22;65797;47.352;8.164;2024-01-30T04:26:17;-0.70;99.90
76838;DHT22;65797;47.352;8.164;2024-01-30T04:28:44;-0.70;99.90
76838;DHT22;65797;47.352;8.164;2024-01-30T04:31:10;-0.70;1.00
76838;DHT22;65797;47.352;8.164;2024-01-30T04:33:36;-0.70;1.00
76838;DHT22;65797;47.352;8.164;2024-01-30T04:36:02;-0.60;1.00
76838;DHT22;65797;47.352;8.164;2024-01-30T04:38:28;-0.60;1.00
76838;DHT22;65797;47.352;8.164;2024-01-30T04:40:54;-0.60;1.00
76838;DHT22;65797;47.352;8.164;2024-01-30T04:43:20;-0.70;1.00
76838;DHT22;65797;47.352;8.164;2024-01-30T04:45:46;-0.70;6.00
76838;DHT22;65797;47.352;8.164;2024-01-30T04:48:11;-0.70;99.90
76838;DHT22;65797;47.352;8.164;2024-01-30T04:50:37;-0.70;99.90
76838;DHT22;65797;47.352;8.164;2024-01-30T04:53:03;-0.70;99.90
76838;DHT22;65797;47.352;8.164;2024-01-30T04:55:28;-0.70;99.90
76838;DHT22;65797;47.352;8.164;2024-01-30T04:57:54;-0.70;99.90
76838;DHT22;65797;47.352;8.164;2024-01-30T05:00:20;-0.60;99.90
76838;DHT22;65797;47.352;8.164;2024-01-30T05:02:45;-0.70;99.90
76838;DHT22;65797;47.352;8.164;2024-01-30T05:05:11;-0.80;99.90
76838;DHT22;65797;47.352;8.164;2024-01-30T05:07:37;-0.70;1.00
76838;DHT22;65797;47.352;8.164;2024-01-30T05:10:03;-0.70;1.00
76838;DHT22;65797;47.352;8.164;2024-01-30T05:12:29;-0.70;1.00
76838;DHT22;65797;47.352;8.164;2024-01-30T05:14:54;-0.70;1.00
76838;DHT22;65797;47.352;8.164;2024-01-30T05:17:20;-0.70;1.00
76838;DHT22;65797;47.352;8.164;2024-01-30T05:19:46;-0.70;1.00
76838;DHT22;65797;47.352;8.164;2024-01-30T05:22:11;-0.70;1.00
76838;DHT22;65797;47.352;8.164;2024-01-30T05:24:41;-0.70;1.00
76838;DHT22;65797;47.352;8.164;2024-01-30T05:27:08;-0.70;1.00
76838;DHT22;65797;47.352;8.164;2024-01-30T05:29:33;-0.70;1.00
76838;DHT22;65797;47.352;8.164;2024-01-30T05:31:59;-0.70;1.00
76838;DHT22;65797;47.352;8.164;2024-01-30T05:34:25;-0.70;1.00
76838;DHT22;65797;47.352;8.164;2024-01-30T05:36:50;-0.70;1.00
76838;DHT22;65797;47.352;8.164;2024-01-30T05:39:16;-0.70;1.00
76838;DHT22;65797;47.352;8.164;2024-01-30T05:41:42;-0.80;99.90
76838;DHT22;65797;47.352;8.164;2024-01-30T05:44:07;-0.80;99.90
76838;DHT22;65797;47.352;8.164;2024-01-30T05:46:35;-0.80;99.90
76838;DHT22;65797;47.352;8.164;2024-01-30T05:49:00;-0.80;99.90
76838;DHT22;65797;47.352;8.164;2024-01-30T05:51:26;-0.70;1.00
76838;DHT22;65797;47.352;8.164;2024-01-30T05:53:53;-0.70;99.90
76838;DHT22;65797;47.352;8.164;2024-01-30T05:56:19;-0.70;1.00
76838;DHT22;65797;47.352;8.164;2024-01-30T05:58:44;-0.80;1.00
76838;DHT22;65797;47.352;8.164;2024-01-30T06:01:10;-0.80;1.00
76838;DHT22;65797;47.352;8.164;2024-01-30T06:03:36;-0.70;1.00
76838;DHT22;65797;47.352;8.164;2024-01-30T06:06:02;-0.70;1.00
76838;DHT22;65797;47.352;8.164;2024-01-30T06:08:28;-0.70;1.00
76838;DHT22;65797;47.352;8.164;2024-01-30T06:10:54;-0.70;1.00
76838;DHT22;65797;47.352;8.164;2024-01-30T06:13:19;-0.70;1.00
76838;DHT22;65797;47.352;8.164;2024-01-30T06:15:46;-0.70;1.00
76838;DHT22;65797;47.352;8.164;2024-01-30T06:18:11;-0.70;1.00
76838;DHT22;65797;47.352;8.164;2024-01-30T06:20:37;-0.70;1.00
76838;DHT22;65797;47.352;8.164;2024-01-30T06:23:03;-0.70;1.00
76838;DHT22;65797;47.352;8.164;2024-01-30T06:25:29;-0.80;1.00
76838;DHT22;65797;47.352;8.164;2024-01-30T06:27:54;-0.70;1.00
76838;DHT22;65797;47.352;8.164;2024-01-30T06:30:20;-0.80;1.00
76838;DHT22;65797;47.352;8.164;2024-01-30T06:32:45;-0.70;1.00
76838;DHT22;65797;47.352;8.164;2024-01-30T06:35:11;-0.80;1.00
76838;DHT22;65797;47.352;8.164;2024-01-30T06:37:38;-0.80;1.00
76838;DHT22;65797;47.352;8.164;2024-01-30T06:40:04;-0.80;1.00
76838;DHT22;65797;47.352;8.164;2024-01-30T06:42:30;-0.80;1.00
76838;DHT22;65797;47.352;8.164;2024-01-30T06:44:56;-0.80;1.00
76838;DHT22;65797;47.352;8.164;2024-01-30T06:47:22;-0.80;1.00
76838;DHT22;65797;47.352;8.164;2024-01-30T06:49:47;-0.80;1.00
76838;DHT22;65797;47.352;8.164;2024-01-30T06:52:13;-0.90;99.90
76838;DHT22;65797;47.352;8.164;2024-01-30T06:54:39;-0.80;1.00
76838;DHT22;65797;47.352;8.164;2024-01-30T06:57:05;-0.80;1.00
76838;DHT22;65797;47.352;8.164;2024-01-30T06:59:34;-0.80;1.00
76838;DHT22;65797;47.352;8.164;2024-01-30T07:02:00;-0.80;1.00
76838;DHT22;65797;47.352;8.164;2024-01-30T07:04:26;-0.80;1.00
76838;DHT22;65797;47.352;8.164;2024-01-30T07:06:51;-0.80;1.00
76838;DHT22;65797;47.352;8.164;2024-01-30T07:09:18;-0.80;1.00
76838;DHT22;65797;47.352;8.164;2024-01-30T07:11:44;-0.80;1.00
76838;DHT22;65797;47.352;8.164;2024-01-30T07:14:10;-0.70;1.00
76838;DHT22;65797;47.352;8.164;2024-01-30T07:16:36;-0.70;1.00
76838;DHT22;65797;47.352;8.164;2024-01-30T07:19:01;-0.70;1.00
76838;DHT22;65797;47.352;8.164;2024-01-30T09:20:43;3.20;1.00
76838;DHT22;65797;47.352;8.164;2024-01-30T09:23:10;3.40;84.80
76838;DHT22;65797;47.352;8.164;2024-01-30T19:43:18;5.10;1.00
76838;DHT22;65797;47.352;8.164;2024-01-30T19:45:53;5.10;1.00
76838;DHT22;65797;47.352;8.164;2024-01-30T19:48:20;5.10;1.00
76838;DHT22;65797;47.352;8.164;2024-01-30T19:50:45;5.20;1.00
76838;DHT22;65797;47.352;8.164;2024-01-30T19:53:11;5.10;99.90
76838;DHT22;65797;47.352;8.164;2024-01-30T19:55:37;5.00;99.90
76838;DHT22;65797;47.352;8.164;2024-01-30T19:58:02;5.00;99.90
76838;DHT22;65797;47.352;8.164;2024-01-30T20:00:30;5.00;99.90
76838;DHT22;65797;47.352;8.164;2024-01-30T20:02:56;5.00;99.90
76838;DHT22;65797;47.352;8.164;2024-01-30T20:05:22;5.00;99.90
76838;DHT22;65797;47.352;8.164;2024-01-30T20:07:48;4.90;99.90
76838;DHT22;65797;47.352;8.164;2024-01-30T20:10:14;4.90;1.00
76838;DHT22;65797;47.352;8.164;2024-01-30T20:12:40;4.90;1.00
76838;DHT22;65797;47.352;8.164;2024-01-30T20:15:07;4.90;99.90
76838;DHT22;65797;47.352;8.164;2024-01-30T20:17:39;4.90;99.90
76838;DHT22;65797;47.352;8.164;2024-01-30T20:20:09;4.80;99.90
76838;DHT22;65797;47.352;8.164;2024-01-30T20:22:36;4.80;1.00
76838;DHT22;65797;47.352;8.164;2024-01-30T20:25:03;4.70;1.00
76838;DHT22;65797;47.352;8.164;2024-01-30T20:27:28;4.70;99.90
76838;DHT22;65797;47.352;8.164;2024-01-30T20:29:54;4.70;99.90
76838;DHT22;65797;47.352;8.164;2024-01-30T20:32:20;4.70;1.00
76838;DHT22;65797;47.352;8.164;2024-01-30T20:34:46;4.70;99.90
76838;DHT22;65797;47.352;8.164;2024-01-30T20:37:12;4.70;99.90
76838;DHT22;65797;47.352;8.164;2024-01-30T20:39:38;4.70;89.90
76838;DHT22;65797;47.352;8.164;2024-01-30T20:42:06;4.70;1.00
76838;DHT22;65797;47.352;8.164;2024-01-30T20:44:32;4.70;1.00
76838;DHT22;65797;47.352;8.164;2024-01-30T20:46:58;4.70;78.60
76838;DHT22;65797;47.352;8.164;2024-01-30T20:49:23;4.70;99.90
76838;DHT22;65797;47.352;8.164;2024-01-30T20:51:49;4.60;1.00
76838;DHT22;65797;47.352;8.164;2024-01-30T20:54:16;4.60;99.90
76838;DHT22;65797;47.352;8.164;2024-01-30T20:56:41;4.60;99.90
76838;DHT22;65797;47.352;8.164;2024-01-30T20:59:08;4.60;99.90
76838;DHT22;65797;47.352;8.164;2024-01-30T21:01:34;4.50;99.90
76838;DHT22;65797;47.352;8.164;2024-01-30T21:03:59;4.40;99.90
76838;DHT22;65797;47.352;8.164;2024-01-30T21:06:25;4.40;1.00
76838;DHT22;65797;47.352;8.164;2024-01-30T21:08:51;4.40;1.00
76838;DHT22;65797;47.352;8.164;2024-01-30T21:11:18;4.50;64.60
76838;DHT22;65797;47.352;8.164;2024-01-30T21:13:44;4.50;1.00
76838;DHT22;65797;47.352;8.164;2024-01-30T21:21:28;4.50;1.00
76838;DHT22;65797;47.352;8.164;2024-01-30T21:23:54;4.50;1.00
76838;DHT22;65797;47.352;8.164;2024-01-30T21:26:20;4.50;1.00
76838;DHT22;65797;47.352;8.164;2024-01-30T21:31:21;4.50;1.00
76838;DHT22;65797;47.352;8.164;2024-01-30T21:33:47;4.50;1.00
76838;DHT22;65797;47.352;8.164;2024-01-30T21:36:13;4.50;1.00
76838;DHT22;65797;47.352;8.164;2024-01-30T21:38:38;4.50;1.00
76838;DHT22;65797;47.352;8.164;2024-01-30T21:43:39;4.50;1.00
76838;DHT22;65797;47.352;8.164;2024-01-30T21:46:05;4.50;1.00
76838;DHT22;65797;47.352;8.164;2024-01-30T21:48:32;4.50;61.30
76838;DHT22;65797;47.352;8.164;2024-01-30T21:50:58;4.50;99.90
76838;DHT22;65797;47.352;8.164;2024-01-30T21:53:24;4.50;99.90
76838;DHT22;65797;47.352;8.164;2024-01-30T21:55:49;4.40;99.90
76838;DHT22;65797;47.352;8.164;2024-01-30T21:58:15;4.40;99.90
76838;DHT22;65797;47.352;8.164;2024-01-30T22:00:41;4.40;99.90
76838;DHT22;65797;47.352;8.164;2024-01-30T22:03:06;4.40;1.00
76838;DHT22;65797;47.352;8.164;2024-01-30T22:08:07;4.30;1.00
76838;DHT22;65797;47.352;8.164;2024-01-30T22:10:33;4.30;99.90
76838;DHT22;65797;47.352;8.164;2024-01-30T22:12:59;4.30;99.90
76838;DHT22;65797;47.352;8.164;2024-01-30T22:15:24;4.20;99.90
76838;DHT22;65797;47.352;8.164;2024-01-30T22:17:50;4.20;99.90
76838;DHT22;65797;47.352;8.164;2024-01-30T22:20:16;4.20;99.90
76838;DHT22;65797;47.352;8.164;2024-01-30T22:22:41;4.10;99.90
76838;DHT22;65797;47.352;8.164;2024-01-30T22:25:07;4.10;99.90
76838;DHT22;65797;47.352;8.164;2024-01-30T22:27:36;4.10;99.90
76838;DHT22;65797;47.352;8.164;2024-01-30T22:30:02;4.10;99.90
76838;DHT22;65797;47.352;8.164;2024-01-30T22:32:30;4.00;99.90
76838;DHT22;65797;47.352;8.164;2024-01-30T22:34:55;4.00;99.90
76838;DHT22;65797;47.352;8.164;2024-01-30T22:42:32;3.90;99.90
76838;DHT22;65797;47.352;8.164;2024-01-30T22:47:34;3.90;99.90
76838;DHT22;65797;47.352;8.164;2024-01-30T22:50:03;3.90;99.90
76838;DHT22;65797;47.352;8.164;2024-01-30T22:52:30;3.90;1.00
76838;DHT22;65797;47.352;8.164;2024-01-30T22:54:55;3.80;1.00
76838;DHT22;65797;47.352;8.164;2024-01-30T22:57:22;3.80;1.00
76838;DHT22;65797;47.352;8.164;2024-01-30T22:59:48;3.70;1.00
76838;DHT22;65797;47.352;8.164;2024-01-30T23:02:14;3.60;1.00
76838;DHT22;65797;47.352;8.164;2024-01-30T23:04:40;3.60;1.00
76838;DHT22;65797;47.352;8.164;2024-01-30T23:07:05;3.60;50.60
76838;DHT22;65797;47.352;8.164;2024-01-30T23:09:32;3.50;17.40
76838;DHT22;65797;47.352;8.164;2024-01-30T23:11:58;3.50;31.20
76838;DHT22;65797;47.352;8.164;2024-01-30T23:14:24;3.40;1.00
76838;DHT22;65797;47.352;8.164;2024-01-30T23:16:50;3.30;1.00
76838;DHT22;65797;47.352;8.164;2024-01-30T23:19:16;3.30;1.00
76838;DHT22;65797;47.352;8.164;2024-01-30T23:21:42;3.30;41.80
76838;DHT22;65797;47.352;8.164;2024-01-30T23:24:07;3.20;1.00
76838;DHT22;65797;47.352;8.164;2024-01-30T23:26:33;3.10;99.90
76838;DHT22;65797;47.352;8.164;2024-01-30T23:28:59;3.10;1.00
76838;DHT22;65797;47.352;8.164;2024-01-30T23:31:24;3.10;1.00
76838;DHT22;65797;47.352;8.164;2024-01-30T23:33:50;3.10;99.90
76838;DHT22;65797;47.352;8.164;2024-01-30T23:36:17;3.10;99.90
76838;DHT22;65797;47.352;8.164;2024-01-30T23:38:43;3.10;37.00
76838;DHT22;65797;47.352;8.164;2024-01-30T23:41:08;3.10;96.60
76838;DHT22;65797;47.352;8.164;2024-01-30T23:43:34;3.10;1.00
76838;DHT22;65797;47.352;8.164;2024-01-30T23:46:00;3.00;1.00
76838;DHT22;65797;47.352;8.164;2024-01-30T23:48:25;3.00;1.00
76838;DHT22;65797;47.352;8.164;2024-01-30T23:50:51;3.00;1.00
76838;DHT22;65797;47.352;8.164;2024-01-30T23:53:17;3.10;1.00
76838;DHT22;65797;47.352;8.164;2024-01-30T23:55:43;3.10;1.00
76838;DHT22;65797;47.352;8.164;2024-01-30T23:58:08;3.10;1.00
